Terminal Aerodrome Forecast
Issued by NWS Louisville, KY

Current Version | Previous Version | Text Only | Print | Product List | Glossary On
Versions: 1 2 3 4 5 6 7 8 9 10 11 12 13
000
FTUS43 KLMK 282300
TAFLEX
TAF
KLEX 282326Z 2900/2924 08005KT P6SM FEW040
     FM290700 VRB03KT 5SM BR SKC
     FM291400 17007KT P6SM SCT040=

USA.gov is the U.S. government's official web portal to all federal, state and local government web resources and services.